createdAt,value
2016-11-22T00:01:08.714Z,0
2016-11-22T00:02:19.939Z,0
2016-11-22T00:03:30.980Z,0
2016-11-22T00:04:42.205Z,0
2016-11-22T00:05:53.492Z,0
2016-11-22T00:07:04.516Z,0
2016-11-22T00:08:15.546Z,0
2016-11-22T00:09:26.573Z,0
2016-11-22T00:10:37.603Z,0
2016-11-22T00:11:48.697Z,0
2016-11-22T00:12:59.726Z,0
2016-11-22T00:14:10.757Z,0
2016-11-22T00:15:21.995Z,0
2016-11-22T00:16:33.028Z,0
2016-11-22T00:17:44.110Z,0
2016-11-22T00:18:55.135Z,0
2016-11-22T00:20:06.159Z,0
2016-11-22T00:21:17.427Z,0
2016-11-22T00:22:28.461Z,0
2016-11-22T00:23:39.548Z,0
2016-11-22T00:24:50.582Z,0
2016-11-22T00:26:02.216Z,0
2016-11-22T00:27:13.461Z,0
2016-11-22T00:28:24.729Z,0
2016-11-22T00:29:35.839Z,0
2016-11-22T00:30:46.875Z,0
2016-11-22T00:31:57.912Z,0
2016-11-22T00:33:08.948Z,0
2016-11-22T00:34:19.987Z,0
2016-11-22T00:35:31.070Z,0
2016-11-22T00:36:42.091Z,0
2016-11-22T00:37:53.532Z,0
2016-11-22T00:39:04.558Z,0
2016-11-22T00:40:15.802Z,0
2016-11-22T00:41:27.106Z,0
2016-11-22T00:42:38.155Z,0
2016-11-22T00:43:49.184Z,0
2016-11-22T00:45:00.219Z,0
2016-11-22T00:46:11.276Z,0
2016-11-22T00:47:22.354Z,0
2016-11-22T00:48:33.579Z,0
2016-11-22T00:49:44.816Z,0
2016-11-22T00:50:55.856Z,0
2016-11-22T00:52:06.901Z,0
2016-11-22T00:53:17.998Z,0
2016-11-22T00:54:29.027Z,0
2016-11-22T00:55:40.071Z,0
2016-11-22T00:56:51.310Z,0
2016-11-22T00:58:02.346Z,0
2016-11-22T00:59:13.462Z,0
2016-11-22T01:00:24.537Z,0
2016-11-22T01:01:35.769Z,0
2016-11-22T01:02:46.796Z,0
2016-11-22T01:03:57.825Z,0
2016-11-22T01:05:08.895Z,0
2016-11-22T01:06:19.920Z,0
2016-11-22T01:07:30.979Z,0
2016-11-22T01:08:42.004Z,0
2016-11-22T01:09:53.044Z,0
2016-11-22T01:11:04.064Z,0
2016-11-22T01:12:15.099Z,0
2016-11-22T01:13:26.132Z,0
2016-11-22T01:14:37.158Z,0
2016-11-22T01:15:48.230Z,0
2016-11-22T01:16:59.467Z,0
2016-11-22T01:18:10.500Z,0
2016-11-22T01:19:21.526Z,0
2016-11-22T01:20:32.585Z,0
2016-11-22T01:21:43.664Z,0
2016-11-22T01:22:54.703Z,0
2016-11-22T01:24:05.949Z,0
2016-11-22T01:25:16.983Z,0
2016-11-22T01:26:28.015Z,0
2016-11-22T01:27:39.511Z,0
2016-11-22T01:28:50.744Z,0
2016-11-22T01:30:01.779Z,0
2016-11-22T01:31:12.821Z,0
2016-11-22T01:32:23.860Z,0
2016-11-22T01:33:34.953Z,0
2016-11-22T01:34:45.990Z,0
2016-11-22T01:35:57.033Z,0
2016-11-22T01:37:08.275Z,0
2016-11-22T01:38:19.319Z,0
2016-11-22T01:39:30.406Z,0
2016-11-22T01:40:41.442Z,0
2016-11-22T01:41:52.483Z,0
2016-11-22T01:43:03.505Z,0
2016-11-22T01:44:14.542Z,0
2016-11-22T01:45:25.635Z,0
2016-11-22T01:46:36.668Z,0
2016-11-22T01:47:47.695Z,0
2016-11-22T01:48:58.724Z,0
2016-11-22T01:50:09.759Z,0
2016-11-22T01:51:20.850Z,0
2016-11-22T01:52:31.878Z,0
2016-11-22T01:53:42.938Z,0
2016-11-22T01:54:53.969Z,0
2016-11-22T01:56:05.206Z,0
2016-11-22T01:57:16.292Z,0
2016-11-22T01:58:27.322Z,0
2016-11-22T01:59:38.351Z,0
2016-11-22T02:00:49.577Z,0
2016-11-22T02:02:00.646Z,0
2016-11-22T02:03:11.752Z,0
2016-11-22T02:04:22.773Z,0
2016-11-22T02:05:33.841Z,0
2016-11-22T02:06:44.886Z,0
2016-11-22T02:07:56.119Z,0
2016-11-22T02:09:07.208Z,0
2016-11-22T02:10:18.274Z,0
2016-11-22T02:11:29.346Z,0
2016-11-22T02:12:40.591Z,0
2016-11-22T02:13:51.622Z,0
2016-11-22T02:15:02.738Z,0
2016-11-22T02:16:13.777Z,0
2016-11-22T02:17:24.799Z,0
2016-11-22T02:18:35.839Z,0
2016-11-22T02:19:46.873Z,0
2016-11-22T02:20:58.159Z,0
2016-11-22T02:22:09.181Z,0
2016-11-22T02:23:20.214Z,0
2016-11-22T02:24:31.655Z,0
2016-11-22T02:25:42.682Z,0
2016-11-22T02:26:53.759Z,0
2016-11-22T02:28:04.807Z,0
2016-11-22T02:29:15.841Z,0
2016-11-22T02:30:26.886Z,0
2016-11-22T02:31:38.128Z,0
2016-11-22T02:32:49.205Z,0
2016-11-22T02:34:00.234Z,0
2016-11-22T02:35:11.266Z,0
2016-11-22T02:36:22.515Z,0
2016-11-22T02:37:33.539Z,0
2016-11-22T02:38:44.623Z,0
2016-11-22T02:39:55.644Z,0
2016-11-22T02:41:06.671Z,0
2016-11-22T02:42:17.911Z,0
2016-11-22T02:43:28.985Z,0
2016-11-22T02:44:40.085Z,0
2016-11-22T02:45:51.312Z,0
2016-11-22T02:47:02.356Z,0
2016-11-22T02:48:13.397Z,0
2016-11-22T02:49:24.428Z,0
2016-11-22T02:50:35.525Z,0
2016-11-22T02:51:46.560Z,0
2016-11-22T02:52:57.588Z,0
2016-11-22T02:54:08.632Z,0
2016-11-22T02:55:19.660Z,0
2016-11-22T02:56:30.743Z,0
2016-11-22T02:57:41.765Z,0
2016-11-22T02:58:53.209Z,0
2016-11-22T03:00:04.253Z,0
2016-11-22T03:01:15.289Z,0
2016-11-22T03:02:26.368Z,0
2016-11-22T03:03:37.405Z,0
2016-11-22T03:04:48.430Z,0
2016-11-22T03:05:59.675Z,0
2016-11-22T03:07:10.711Z,0
2016-11-22T03:08:22.200Z,0
2016-11-22T03:09:33.240Z,0
2016-11-22T03:10:44.269Z,0
2016-11-22T03:11:55.306Z,0
2016-11-22T03:13:06.344Z,0
2016-11-22T03:14:17.433Z,0
2016-11-22T03:15:28.473Z,0
2016-11-22T03:16:39.502Z,0
2016-11-22T03:17:50.544Z,0
2016-11-22T03:19:01.579Z,0
2016-11-22T03:20:12.661Z,0
2016-11-22T03:21:23.697Z,0
2016-11-22T03:22:34.737Z,0
2016-11-22T03:23:45.770Z,0
2016-11-22T03:24:56.807Z,0
2016-11-22T03:26:07.885Z,0
2016-11-22T03:27:18.917Z,0
2016-11-22T03:28:29.963Z,0
2016-11-22T03:29:40.990Z,0
2016-11-22T03:30:52.017Z,0
2016-11-22T03:32:03.111Z,0
2016-11-22T03:33:14.156Z,0
2016-11-22T03:34:25.188Z,0
2016-11-22T03:35:36.234Z,0
2016-11-22T03:36:47.277Z,0
2016-11-22T03:37:58.593Z,0
2016-11-22T03:39:09.633Z,0
2016-11-22T03:40:20.664Z,0
2016-11-22T03:41:31.701Z,0
2016-11-22T03:42:42.738Z,0
2016-11-22T03:43:53.809Z,0
2016-11-22T03:45:05.043Z,0
2016-11-22T03:46:16.071Z,0
2016-11-22T03:47:27.327Z,0
2016-11-22T03:48:38.347Z,0
2016-11-22T03:49:49.438Z,0
2016-11-22T03:51:00.465Z,0
2016-11-22T03:52:11.495Z,0
2016-11-22T03:53:22.558Z,0
2016-11-22T03:54:33.605Z,0
2016-11-22T03:55:44.893Z,0
2016-11-22T03:56:56.128Z,0
2016-11-22T03:58:07.163Z,0
2016-11-22T03:59:18.204Z,0
2016-11-22T04:00:29.623Z,0
2016-11-22T04:01:40.724Z,0
2016-11-22T04:02:51.761Z,0
2016-11-22T04:04:02.795Z,0
2016-11-22T04:05:13.839Z,0
2016-11-22T04:06:25.072Z,0
2016-11-22T04:07:36.356Z,0
2016-11-22T04:08:47.586Z,0
2016-11-22T04:09:58.818Z,0
2016-11-22T04:11:09.851Z,0
2016-11-22T04:12:20.874Z,0
2016-11-22T04:13:31.953Z,0
2016-11-22T04:14:42.983Z,0
2016-11-22T04:15:54.025Z,0
2016-11-22T04:17:05.260Z,0
2016-11-22T04:18:16.299Z,0
2016-11-22T04:19:27.372Z,0
2016-11-22T04:20:38.815Z,0
2016-11-22T04:21:50.047Z,0
2016-11-22T04:23:01.078Z,0
2016-11-22T04:24:12.099Z,0
2016-11-22T04:25:23.184Z,0
2016-11-22T04:26:34.261Z,0
2016-11-22T04:27:45.687Z,0
2016-11-22T04:28:56.721Z,0
2016-11-22T04:30:07.755Z,0
2016-11-22T04:31:18.842Z,0
2016-11-22T04:32:29.876Z,0
2016-11-22T04:33:40.906Z,0
2016-11-22T04:34:51.929Z,0
2016-11-22T04:36:02.964Z,0
2016-11-22T04:37:14.038Z,0
2016-11-22T04:38:25.071Z,0
2016-11-22T04:39:36.092Z,0
2016-11-22T04:40:47.113Z,0
2016-11-22T04:41:58.170Z,0
2016-11-22T04:43:09.251Z,0
2016-11-22T04:44:20.491Z,0
2016-11-22T04:45:31.523Z,0
2016-11-22T04:46:42.555Z,0
2016-11-22T04:47:53.596Z,0
2016-11-22T04:49:04.670Z,0
2016-11-22T04:50:15.699Z,0
2016-11-22T04:51:26.734Z,0
2016-11-22T04:52:37.769Z,0
2016-11-22T04:53:48.821Z,0
2016-11-22T04:54:59.913Z,0
2016-11-22T04:56:10.940Z,0
2016-11-22T04:57:22.004Z,0
2016-11-22T04:58:33.241Z,0
2016-11-22T04:59:44.308Z,0
2016-11-22T05:00:55.385Z,0
2016-11-22T05:02:06.419Z,0
2016-11-22T05:03:17.446Z,0
2016-11-22T05:04:28.672Z,0
2016-11-22T05:05:40.113Z,0
2016-11-22T05:06:51.218Z,0
2016-11-22T05:08:02.264Z,0
2016-11-22T05:09:13.281Z,0
2016-11-22T05:10:24.301Z,0
2016-11-22T05:11:35.345Z,0
2016-11-22T05:12:46.676Z,0
2016-11-22T05:13:57.712Z,0
2016-11-22T05:15:08.740Z,0
2016-11-22T05:16:19.976Z,0
2016-11-22T05:17:31.224Z,0
2016-11-22T05:18:42.313Z,0
2016-11-22T05:19:53.340Z,0
2016-11-22T05:21:04.797Z,0
2016-11-22T05:22:15.851Z,0
2016-11-22T05:23:26.876Z,0
2016-11-22T05:24:37.949Z,0
2016-11-22T05:25:48.982Z,0
2016-11-22T05:27:00.025Z,0
2016-11-22T05:28:11.053Z,0
2016-11-22T05:29:22.517Z,0
2016-11-22T05:30:33.645Z,0
2016-11-22T05:31:44.682Z,0
2016-11-22T05:32:55.712Z,0
2016-11-22T05:34:06.750Z,0
2016-11-22T05:35:17.800Z,0
2016-11-22T05:36:28.879Z,0
2016-11-22T05:37:39.915Z,0
2016-11-22T05:38:50.964Z,0
2016-11-22T05:40:02.202Z,0
2016-11-22T05:41:13.230Z,0
2016-11-22T05:42:24.303Z,0
2016-11-22T05:43:35.342Z,0
2016-11-22T05:44:46.383Z,0
2016-11-22T05:45:57.420Z,0
2016-11-22T05:47:08.660Z,0
2016-11-22T05:48:19.742Z,0
2016-11-22T05:49:30.770Z,0
2016-11-22T05:50:41.810Z,0
2016-11-22T05:51:52.880Z,0
2016-11-22T05:53:04.125Z,0
2016-11-22T05:54:15.402Z,0
2016-11-22T05:55:27.036Z,0
2016-11-22T05:56:38.072Z,0
2016-11-22T05:57:49.136Z,0
2016-11-22T05:59:00.190Z,0
2016-11-22T06:00:11.271Z,0
2016-11-22T06:01:22.298Z,0
2016-11-22T06:02:33.347Z,0
2016-11-22T06:03:44.373Z,0
2016-11-22T06:04:55.416Z,0
2016-11-22T06:06:06.504Z,0
2016-11-22T06:07:17.758Z,0
2016-11-22T06:08:29.002Z,0
2016-11-22T06:09:40.249Z,0
2016-11-22T06:10:51.272Z,0
2016-11-22T06:12:02.348Z,0
2016-11-22T06:13:13.605Z,0
2016-11-22T06:14:24.643Z,0
2016-11-22T06:15:35.680Z,0
2016-11-22T06:16:46.713Z,0
2016-11-22T06:17:57.787Z,0
2016-11-22T06:19:08.827Z,0
2016-11-22T06:20:19.856Z,0
2016-11-22T06:21:30.886Z,0
2016-11-22T06:22:41.932Z,0
2016-11-22T06:23:53.230Z,0
2016-11-22T06:25:04.287Z,0
2016-11-22T06:26:15.358Z,0
2016-11-22T06:27:26.439Z,0
2016-11-22T06:28:37.671Z,4
2016-11-22T06:29:48.765Z,4
2016-11-22T06:30:59.794Z,0
2016-11-22T06:32:10.835Z,4
2016-11-22T06:33:21.858Z,4
2016-11-22T06:34:32.901Z,4
2016-11-22T06:35:44.176Z,8
2016-11-22T06:36:55.200Z,8
2016-11-22T06:38:06.232Z,8
2016-11-22T06:39:17.264Z,12
2016-11-22T06:40:28.295Z,16
2016-11-22T06:41:39.375Z,20
2016-11-22T06:42:50.456Z,24
2016-11-22T06:44:01.488Z,28
2016-11-22T06:45:12.513Z,32
2016-11-22T06:46:23.759Z,36
2016-11-22T06:47:35.062Z,40
2016-11-22T06:48:46.106Z,48
2016-11-22T06:49:57.142Z,56
2016-11-22T06:51:08.368Z,64
2016-11-22T06:52:19.393Z,68
2016-11-22T06:53:30.483Z,76
2016-11-22T06:54:41.509Z,84
2016-11-22T06:55:52.744Z,92
2016-11-22T06:57:03.766Z,104
2016-11-22T06:58:14.799Z,112
2016-11-22T06:59:26.088Z,120
2016-11-22T07:00:37.107Z,128
2016-11-22T07:01:48.142Z,140
2016-11-22T07:02:59.382Z,148
2016-11-22T07:04:10.406Z,164
2016-11-22T07:05:21.485Z,176
2016-11-22T07:06:32.510Z,192
2016-11-22T07:07:43.534Z,208
2016-11-22T07:08:54.572Z,232
2016-11-22T07:10:05.619Z,252
2016-11-22T07:11:16.692Z,276
2016-11-22T07:12:27.729Z,304
2016-11-22T07:13:38.773Z,332
2016-11-22T07:14:49.803Z,364
2016-11-22T07:16:01.038Z,396
2016-11-22T07:17:12.101Z,428
2016-11-22T07:18:23.124Z,468
2016-11-22T07:19:34.345Z,500
2016-11-22T07:20:45.388Z,540
2016-11-22T07:21:56.431Z,588
2016-11-22T07:23:07.505Z,636
2016-11-22T07:24:18.726Z,688
2016-11-22T07:25:29.753Z,740
2016-11-22T07:26:40.787Z,792
2016-11-22T07:27:51.815Z,844
2016-11-22T07:29:02.890Z,892
2016-11-22T07:30:13.912Z,944
2016-11-22T07:31:25.151Z,992
2016-11-22T07:32:36.172Z,1044
2016-11-22T07:33:47.209Z,1100
2016-11-22T07:34:58.292Z,1156
2016-11-22T07:36:09.336Z,1216
2016-11-22T07:37:20.382Z,1280
2016-11-22T07:38:31.404Z,1344
2016-11-22T07:39:42.447Z,1416
2016-11-22T07:40:53.737Z,1496
2016-11-22T07:42:04.987Z,1580
2016-11-22T07:43:16.025Z,1660
2016-11-22T07:44:27.045Z,1736
2016-11-22T07:45:38.076Z,1816
2016-11-22T07:46:49.159Z,1896
2016-11-22T07:48:00.396Z,1964
2016-11-22T07:49:11.430Z,2016
2016-11-22T07:50:22.463Z,2088
2016-11-22T07:51:33.509Z,2156
2016-11-22T07:52:44.595Z,2248
2016-11-22T07:53:55.640Z,2364
2016-11-22T07:55:06.676Z,2484
2016-11-22T07:56:17.700Z,2604
2016-11-22T07:57:28.723Z,2724
2016-11-22T07:58:39.825Z,2840
2016-11-22T07:59:50.858Z,2940
2016-11-22T08:01:01.888Z,3048
2016-11-22T08:02:12.926Z,3172
2016-11-22T08:03:23.953Z,3300
2016-11-22T08:04:35.244Z,3412
2016-11-22T08:05:46.300Z,3504
2016-11-22T08:06:57.337Z,3580
2016-11-22T08:08:08.561Z,3664
2016-11-22T08:09:19.780Z,3772
2016-11-22T08:10:30.820Z,3908
2016-11-22T08:11:41.850Z,4080
2016-11-22T08:12:52.876Z,4284
2016-11-22T08:14:03.899Z,4500
2016-11-22T08:15:15.181Z,4692
2016-11-22T08:16:26.418Z,4836
2016-11-22T08:17:37.461Z,4924
2016-11-22T08:18:48.480Z,4944
2016-11-22T08:19:59.505Z,4912
2016-11-22T08:21:10.618Z,4908
2016-11-22T08:22:21.871Z,5012
2016-11-22T08:23:32.910Z,5152
2016-11-22T08:24:43.930Z,5408
2016-11-22T08:25:54.965Z,5688
2016-11-22T08:27:06.056Z,5856
2016-11-22T08:28:17.105Z,6016
2016-11-22T08:29:28.139Z,6204
2016-11-22T08:30:39.170Z,6452
2016-11-22T08:31:50.200Z,6744
2016-11-22T08:33:01.484Z,7012
2016-11-22T08:34:12.522Z,7408
2016-11-22T08:35:23.551Z,8040
2016-11-22T08:36:34.577Z,8768
2016-11-22T08:37:45.608Z,8668
2016-11-22T08:38:56.701Z,8896
2016-11-22T08:40:07.728Z,9248
2016-11-22T08:41:18.754Z,9944
2016-11-22T08:42:29.782Z,11172
2016-11-22T08:43:40.825Z,10852
2016-11-22T08:44:51.918Z,10236
2016-11-22T08:46:02.961Z,10664
2016-11-22T08:47:14.002Z,10740
2016-11-22T08:48:25.036Z,11152
2016-11-22T08:49:36.071Z,11964
2016-11-22T08:50:47.355Z,12608
2016-11-22T08:51:58.402Z,12760
2016-11-22T08:53:09.464Z,12328
2016-11-22T08:54:20.697Z,11708
2016-11-22T08:55:31.931Z,8940
2016-11-22T08:56:43.223Z,6952
2016-11-22T08:57:54.280Z,6324
2016-11-22T08:59:05.309Z,5620
2016-11-22T09:00:16.370Z,4944
2016-11-22T09:01:27.397Z,4492
2016-11-22T09:02:38.480Z,4244
2016-11-22T09:03:49.510Z,4228
2016-11-22T09:05:00.538Z,4372
2016-11-22T09:06:11.578Z,4508
2016-11-22T09:07:22.616Z,4536
2016-11-22T09:08:33.691Z,4540
2016-11-22T09:09:44.728Z,4636
2016-11-22T09:10:55.763Z,4872
2016-11-22T09:12:06.818Z,5144
2016-11-22T09:13:17.844Z,5552
2016-11-22T09:14:28.861Z,5900
2016-11-22T09:15:39.899Z,5940
2016-11-22T09:16:50.946Z,5912
2016-11-22T09:18:01.975Z,6216
2016-11-22T09:19:13.061Z,6272
2016-11-22T09:20:24.096Z,7824
2016-11-22T09:21:35.128Z,6420
2016-11-22T09:22:46.163Z,7508
2016-11-22T09:23:57.184Z,6792
2016-11-22T09:25:08.265Z,6552
2016-11-22T09:26:19.300Z,6148
2016-11-22T09:27:30.333Z,6164
2016-11-22T09:28:41.366Z,6368
2016-11-22T09:29:52.388Z,6456
2016-11-22T09:31:03.482Z,6584
2016-11-22T09:32:14.557Z,6748
2016-11-22T09:33:25.586Z,7180
2016-11-22T09:34:36.616Z,8380
2016-11-22T09:35:47.653Z,11692
2016-11-22T09:36:58.944Z,24096
2016-11-22T09:38:10.397Z,28192
2016-11-22T09:39:21.444Z,22528
2016-11-22T09:40:32.482Z,18752
2016-11-22T09:41:43.524Z,19072
2016-11-22T09:42:54.610Z,20896
2016-11-22T09:44:05.643Z,23584
2016-11-22T09:45:16.913Z,28096
2016-11-22T09:46:27.951Z,28640
2016-11-22T09:47:39.187Z,25280
2016-11-22T09:48:50.277Z,26432
2016-11-22T09:50:01.335Z,19968
2016-11-22T09:51:12.352Z,17728
2016-11-22T09:52:23.796Z,12772
2016-11-22T09:53:34.831Z,12900
2016-11-22T09:54:45.926Z,13916
2016-11-22T09:55:57.009Z,16000
2016-11-22T09:57:08.049Z,13652
2016-11-22T09:58:19.087Z,13652
2016-11-22T09:59:30.116Z,14472
2016-11-22T10:00:41.413Z,14832
2016-11-22T10:01:52.636Z,15360
2016-11-22T10:03:03.667Z,14392
2016-11-22T10:04:14.703Z,13728
2016-11-22T10:05:25.748Z,13296
2016-11-22T10:06:36.844Z,14856
2016-11-22T10:07:47.875Z,16128
2016-11-22T10:08:58.912Z,19616
2016-11-22T10:10:09.954Z,22880
2016-11-22T10:11:20.995Z,18208
2016-11-22T10:12:32.086Z,20160
2016-11-22T10:13:43.163Z,24000
2016-11-22T10:14:54.198Z,14196
2016-11-22T10:16:05.256Z,12652
2016-11-22T10:17:16.485Z,12664
2016-11-22T10:18:27.573Z,14608
2016-11-22T10:19:38.608Z,12948
2016-11-22T10:20:49.851Z,13220
2016-11-22T10:22:00.894Z,11932
2016-11-22T10:23:11.929Z,18080
2016-11-22T10:24:23.041Z,14956
2016-11-22T10:25:34.088Z,21824
2016-11-22T10:26:45.133Z,25536
2016-11-22T10:27:56.213Z,14668
2016-11-22T10:29:07.257Z,12860
2016-11-22T10:30:18.557Z,11204
2016-11-22T10:31:29.583Z,11272
2016-11-22T10:32:40.613Z,9988
2016-11-22T10:33:51.986Z,11216
2016-11-22T10:35:03.023Z,14220
2016-11-22T10:36:14.122Z,11912
2016-11-22T10:37:25.157Z,23808
2016-11-22T10:38:36.192Z,11648
2016-11-22T10:39:47.426Z,11092
2016-11-22T10:40:58.486Z,10024
2016-11-22T10:42:09.579Z,9164
2016-11-22T10:43:20.611Z,8396
2016-11-22T10:44:31.653Z,7756
2016-11-22T10:45:42.679Z,7296
2016-11-22T10:46:53.712Z,6848
2016-11-22T10:48:04.807Z,6708
2016-11-22T10:49:15.840Z,6656
2016-11-22T10:50:26.868Z,6712
2016-11-22T10:51:38.000Z,6956
2016-11-22T10:52:49.038Z,7556
2016-11-22T10:54:00.117Z,7804
2016-11-22T10:55:11.142Z,8044
2016-11-22T10:56:22.183Z,8060
2016-11-22T10:57:33.227Z,8300
2016-11-22T10:58:44.256Z,8824
2016-11-22T10:59:55.559Z,9940
2016-11-22T11:01:06.797Z,11908
2016-11-22T11:02:17.839Z,20384
2016-11-22T11:03:28.871Z,17248
2016-11-22T11:04:39.914Z,21440
2016-11-22T11:05:51.000Z,17216
2016-11-22T11:07:02.040Z,13312
2016-11-22T11:08:13.122Z,10072
2016-11-22T11:09:24.158Z,8464
2016-11-22T11:10:35.200Z,7824
2016-11-22T11:11:46.276Z,7676
2016-11-22T11:12:57.517Z,7996
2016-11-22T11:14:08.560Z,8244
2016-11-22T11:15:19.793Z,8416
2016-11-22T11:16:30.847Z,8696
2016-11-22T11:17:41.935Z,8372
2016-11-22T11:18:52.958Z,8276
2016-11-22T11:20:03.995Z,8396
2016-11-22T11:21:15.034Z,8360
2016-11-22T11:22:26.057Z,8508
2016-11-22T11:23:37.134Z,8712
2016-11-22T11:24:48.175Z,8812
2016-11-22T11:25:59.214Z,8668
2016-11-22T11:27:10.464Z,8680
2016-11-22T11:28:21.714Z,8292
2016-11-22T11:29:32.792Z,7984
2016-11-22T11:30:43.843Z,7944
2016-11-22T11:31:54.914Z,9092
2016-11-22T11:33:05.942Z,10388
2016-11-22T11:34:17.194Z,12784
2016-11-22T11:35:28.282Z,15212
2016-11-22T11:36:39.335Z,15300
2016-11-22T11:37:50.571Z,14932
2016-11-22T11:39:01.598Z,14984
2016-11-22T11:40:12.640Z,14956
2016-11-22T11:41:23.956Z,14124
2016-11-22T11:42:34.986Z,15100
2016-11-22T11:43:46.030Z,14556
2016-11-22T11:44:57.071Z,14368
2016-11-22T11:46:08.103Z,13668
2016-11-22T11:47:19.191Z,13752
2016-11-22T11:48:30.233Z,13876
2016-11-22T11:49:41.465Z,13068
2016-11-22T11:50:52.507Z,13200
2016-11-22T11:52:03.553Z,12188
2016-11-22T11:53:14.643Z,11636
2016-11-22T11:54:25.891Z,12816
2016-11-22T11:55:37.118Z,12512
2016-11-22T11:56:48.155Z,12804
2016-11-22T11:57:59.178Z,13304
2016-11-22T11:59:10.470Z,13320
2016-11-22T12:00:21.501Z,13076
2016-11-22T12:01:32.741Z,10760
2016-11-22T12:02:43.815Z,10272
2016-11-22T12:03:54.851Z,10852
2016-11-22T12:05:06.133Z,10444
2016-11-22T12:06:17.163Z,10084
2016-11-22T12:07:28.203Z,9596
2016-11-22T12:08:39.240Z,8956
2016-11-22T12:09:50.300Z,9032
2016-11-22T12:11:01.546Z,8528
2016-11-22T12:12:12.572Z,8576
2016-11-22T12:13:23.602Z,8396
2016-11-22T12:14:34.870Z,8028
2016-11-22T12:15:45.960Z,7920
2016-11-22T12:16:57.001Z,8116
2016-11-22T12:18:08.032Z,7812
2016-11-22T12:19:19.066Z,7204
2016-11-22T12:20:30.344Z,6496
2016-11-22T12:21:41.418Z,6436
2016-11-22T12:22:52.464Z,6088
2016-11-22T12:24:03.514Z,6136
2016-11-22T12:25:14.555Z,5484
2016-11-22T12:26:25.788Z,5684
2016-11-22T12:27:36.879Z,5220
2016-11-22T12:28:47.936Z,4968
2016-11-22T12:29:59.165Z,5116
2016-11-22T12:31:10.195Z,6032
2016-11-22T12:32:21.242Z,5416
2016-11-22T12:33:32.325Z,5196
2016-11-22T12:34:43.366Z,5544
2016-11-22T12:35:54.389Z,6236
2016-11-22T12:37:05.408Z,5084
2016-11-22T12:38:16.433Z,5076
2016-11-22T12:39:27.722Z,4688
2016-11-22T12:40:38.768Z,5584
2016-11-22T12:41:49.813Z,5356
2016-11-22T12:43:00.850Z,4884
2016-11-22T12:44:11.892Z,4920
2016-11-22T12:45:22.964Z,5056
2016-11-22T12:46:34.198Z,5524
2016-11-22T12:47:45.807Z,5792
2016-11-22T12:48:56.850Z,5884
2016-11-22T12:50:07.886Z,5664
2016-11-22T12:51:18.985Z,5728
2016-11-22T12:52:30.036Z,6012
2016-11-22T12:53:41.061Z,5688
2016-11-22T12:54:52.090Z,5356
2016-11-22T12:56:03.128Z,5520
2016-11-22T12:57:14.404Z,5664
2016-11-22T12:58:25.445Z,5312
2016-11-22T12:59:36.884Z,4880
2016-11-22T13:00:47.920Z,4816
2016-11-22T13:01:59.166Z,4828
2016-11-22T13:03:10.247Z,4948
2016-11-22T13:04:21.280Z,4996
2016-11-22T13:05:32.316Z,5036
2016-11-22T13:06:43.345Z,5120
2016-11-22T13:07:54.473Z,4964
2016-11-22T13:09:05.540Z,4748
2016-11-22T13:10:16.663Z,4660
2016-11-22T13:11:27.710Z,4632
2016-11-22T13:12:38.751Z,4828
2016-11-22T13:13:49.772Z,5172
2016-11-22T13:15:00.852Z,4980
2016-11-22T13:16:12.092Z,5292
2016-11-22T13:17:23.117Z,5720
2016-11-22T13:18:34.161Z,5476
2016-11-22T13:19:45.203Z,5244
2016-11-22T13:20:56.269Z,4916
2016-11-22T13:22:07.329Z,4828
2016-11-22T13:23:18.372Z,4636
2016-11-22T13:24:29.415Z,4664
2016-11-22T13:25:40.442Z,4580
2016-11-22T13:26:51.520Z,4492
2016-11-22T13:28:02.557Z,4456
2016-11-22T13:29:13.611Z,4384
2016-11-22T13:30:24.845Z,4188
2016-11-22T13:31:35.879Z,4104
2016-11-22T13:32:47.212Z,4140
2016-11-22T13:33:58.472Z,4116
2016-11-22T13:35:09.521Z,3936
2016-11-22T13:36:20.551Z,3548
2016-11-22T13:37:31.602Z,3472
2016-11-22T13:38:42.700Z,3412
2016-11-22T13:39:53.733Z,3372
2016-11-22T13:41:04.971Z,3332
2016-11-22T13:42:16.209Z,3256
2016-11-22T13:43:27.253Z,3140
2016-11-22T13:44:38.535Z,3016
2016-11-22T13:45:49.551Z,2892
2016-11-22T13:47:00.585Z,2756
2016-11-22T13:48:11.609Z,2620
2016-11-22T13:49:22.653Z,2484
2016-11-22T13:50:33.788Z,2336
2016-11-22T13:51:44.811Z,2176
2016-11-22T13:52:56.062Z,2020
2016-11-22T13:54:07.109Z,1872
2016-11-22T13:55:18.133Z,1752
2016-11-22T13:56:29.217Z,1652
2016-11-22T13:57:40.240Z,1584
2016-11-22T13:58:51.262Z,1528
2016-11-22T14:00:02.311Z,1484
2016-11-22T14:01:13.363Z,1444
2016-11-22T14:02:24.654Z,1396
2016-11-22T14:03:35.678Z,1356
2016-11-22T14:04:46.741Z,1308
2016-11-22T14:05:57.784Z,1260
2016-11-22T14:07:08.829Z,1224
2016-11-22T14:08:19.918Z,1188
2016-11-22T14:09:30.942Z,1156
2016-11-22T14:10:41.976Z,1136
2016-11-22T14:11:53.015Z,1120
2016-11-22T14:13:04.065Z,1120
2016-11-22T14:14:15.133Z,1128
2016-11-22T14:15:26.188Z,1148
2016-11-22T14:16:37.217Z,1164
2016-11-22T14:17:48.257Z,1180
2016-11-22T14:18:59.308Z,1180
2016-11-22T14:20:10.394Z,1168
2016-11-22T14:21:21.424Z,1152
2016-11-22T14:22:32.473Z,1132
2016-11-22T14:23:43.522Z,1120
2016-11-22T14:24:54.560Z,1112
2016-11-22T14:26:05.627Z,1108
2016-11-22T14:27:16.868Z,1120
2016-11-22T14:28:27.890Z,1120
2016-11-22T14:29:38.915Z,1120
2016-11-22T14:30:49.941Z,1096
2016-11-22T14:32:01.011Z,1044
2016-11-22T14:33:12.054Z,976
2016-11-22T14:34:23.083Z,904
2016-11-22T14:35:34.104Z,852
2016-11-22T14:36:45.144Z,808
2016-11-22T14:37:56.427Z,756
2016-11-22T14:39:07.451Z,716
2016-11-22T14:40:18.476Z,676
2016-11-22T14:41:29.706Z,640
2016-11-22T14:42:40.748Z,608
2016-11-22T14:43:51.826Z,592
2016-11-22T14:45:02.866Z,580
2016-11-22T14:46:13.897Z,568
2016-11-22T14:47:24.947Z,552
2016-11-22T14:48:35.986Z,532
2016-11-22T14:49:47.122Z,520
2016-11-22T14:50:58.155Z,508
2016-11-22T14:52:09.189Z,504
2016-11-22T14:53:20.218Z,504
2016-11-22T14:54:31.258Z,512
2016-11-22T14:55:42.550Z,524
2016-11-22T14:56:53.580Z,532
2016-11-22T14:58:04.620Z,536
2016-11-22T14:59:15.658Z,524
2016-11-22T15:00:26.684Z,504
2016-11-22T15:01:37.771Z,480
2016-11-22T15:02:49.043Z,444
2016-11-22T15:04:00.471Z,404
2016-11-22T15:05:11.917Z,368
2016-11-22T15:06:22.942Z,344
2016-11-22T15:07:34.022Z,320
2016-11-22T15:08:45.061Z,304
2016-11-22T15:09:56.087Z,292
2016-11-22T15:11:07.129Z,280
2016-11-22T15:12:18.171Z,264
2016-11-22T15:13:29.251Z,248
2016-11-22T15:14:40.280Z,220
2016-11-22T15:15:51.319Z,192
2016-11-22T15:17:02.367Z,172
2016-11-22T15:18:13.599Z,156
2016-11-22T15:19:25.092Z,144
2016-11-22T15:20:36.162Z,128
2016-11-22T15:21:47.187Z,116
2016-11-22T15:22:58.206Z,108
2016-11-22T15:24:09.431Z,100
2016-11-22T15:25:20.703Z,92
2016-11-22T15:26:31.745Z,84
2016-11-22T15:27:42.771Z,76
2016-11-22T15:28:53.815Z,64
2016-11-22T15:30:04.844Z,56
2016-11-22T15:31:16.136Z,48
2016-11-22T15:32:27.164Z,44
2016-11-22T15:33:38.199Z,36
2016-11-22T15:34:49.428Z,32
2016-11-22T15:36:00.661Z,28
2016-11-22T15:37:11.752Z,28
2016-11-22T15:38:22.994Z,24
2016-11-22T15:39:34.024Z,20
2016-11-22T15:40:45.053Z,20
2016-11-22T15:41:56.093Z,16
2016-11-22T15:43:07.174Z,12
2016-11-22T15:44:18.216Z,12
2016-11-22T15:45:29.451Z,8
2016-11-22T15:46:40.494Z,4
2016-11-22T15:47:51.732Z,4
2016-11-22T15:49:02.820Z,8
2016-11-22T15:50:13.855Z,4
2016-11-22T15:51:25.092Z,0
2016-11-22T15:52:36.120Z,4
2016-11-22T15:53:47.184Z,4
2016-11-22T15:54:58.460Z,0
2016-11-22T15:56:09.493Z,0
2016-11-22T15:57:20.525Z,0
2016-11-22T15:58:31.558Z,0
2016-11-22T15:59:42.609Z,0
2016-11-22T16:00:53.702Z,0
2016-11-22T16:02:04.938Z,0
2016-11-22T16:03:16.171Z,0
2016-11-22T16:04:27.410Z,0
2016-11-22T16:05:38.645Z,0
2016-11-22T16:06:49.729Z,0
2016-11-22T16:08:00.761Z,0
2016-11-22T16:09:11.824Z,0
2016-11-22T16:10:23.041Z,0
2016-11-22T16:11:34.075Z,0
2016-11-22T16:12:45.154Z,0
2016-11-22T16:13:56.185Z,0
2016-11-22T16:15:07.226Z,0
2016-11-22T16:16:18.244Z,0
2016-11-22T16:17:29.280Z,0
2016-11-22T16:18:40.768Z,0
2016-11-22T16:19:51.808Z,0
2016-11-22T16:21:02.834Z,0
2016-11-22T16:22:13.870Z,0
2016-11-22T16:23:24.890Z,0
2016-11-22T16:24:35.974Z,0
2016-11-22T16:25:47.009Z,0
2016-11-22T16:26:58.046Z,0
2016-11-22T16:28:09.277Z,0
2016-11-22T16:29:20.332Z,0
2016-11-22T16:30:31.419Z,0
2016-11-22T16:31:42.665Z,0
2016-11-22T16:32:53.717Z,0